sensor_id;sensor_type;location;lat;lon;timestamp;P1;durP1;ratioP1;P2;durP2;ratioP2
13698;SDS011;6921;53.642;9.956;2022-07-04T00:01:43;7.32;;;3.58;;
13698;SDS011;6921;53.642;9.956;2022-07-04T00:03:48;4.75;;;4.18;;
13698;SDS011;6921;53.642;9.956;2022-07-04T00:05:51;7.68;;;4.30;;
13698;SDS011;6921;53.642;9.956;2022-07-04T00:07:54;6.72;;;4.03;;
13698;SDS011;6921;53.642;9.956;2022-07-04T00:09:58;4.55;;;3.75;;
13698;SDS011;6921;53.642;9.956;2022-07-04T00:12:01;6.70;;;3.83;;
13698;SDS011;6921;53.642;9.956;2022-07-04T00:14:04;7.60;;;3.67;;
13698;SDS011;6921;53.642;9.956;2022-07-04T00:16:07;6.45;;;4.20;;
13698;SDS011;6921;53.642;9.956;2022-07-04T00:18:11;7.60;;;4.10;;
13698;SDS011;6921;53.642;9.956;2022-07-04T00:20:16;5.90;;;4.32;;
13698;SDS011;6921;53.642;9.956;2022-07-04T00:22:19;11.05;;;4.70;;
13698;SDS011;6921;53.642;9.956;2022-07-04T00:24:22;9.43;;;4.50;;
13698;SDS011;6921;53.642;9.956;2022-07-04T00:26:25;5.97;;;4.70;;
13698;SDS011;6921;53.642;9.956;2022-07-04T00:28:29;5.10;;;4.40;;
13698;SDS011;6921;53.642;9.956;2022-07-04T00:30:32;7.15;;;4.55;;
13698;SDS011;6921;53.642;9.956;2022-07-04T00:32:36;6.10;;;4.20;;
13698;SDS011;6921;53.642;9.956;2022-07-04T00:34:40;9.90;;;5.03;;
13698;SDS011;6921;53.642;9.956;2022-07-04T00:36:45;7.00;;;5.10;;
13698;SDS011;6921;53.642;9.956;2022-07-04T00:38:48;9.27;;;4.75;;
13698;SDS011;6921;53.642;9.956;2022-07-04T00:40:51;11.15;;;6.10;;
13698;SDS011;6921;53.642;9.956;2022-07-04T00:42:59;7.13;;;5.47;;
13698;SDS011;6921;53.642;9.956;2022-07-04T00:45:02;7.97;;;5.22;;
13698;SDS011;6921;53.642;9.956;2022-07-04T00:47:06;6.72;;;5.65;;
13698;SDS011;6921;53.642;9.956;2022-07-04T00:49:10;11.40;;;6.72;;
13698;SDS011;6921;53.642;9.956;2022-07-04T00:51:14;9.15;;;7.32;;
13698;SDS011;6921;53.642;9.956;2022-07-04T00:53:20;10.43;;;6.78;;
13698;SDS011;6921;53.642;9.956;2022-07-04T00:55:25;11.10;;;7.72;;
13698;SDS011;6921;53.642;9.956;2022-07-04T00:57:28;12.07;;;7.80;;
13698;SDS011;6921;53.642;9.956;2022-07-04T00:59:31;13.63;;;7.20;;
13698;SDS011;6921;53.642;9.956;2022-07-04T01:01:35;10.27;;;7.80;;
13698;SDS011;6921;53.642;9.956;2022-07-04T01:03:38;10.30;;;8.75;;
13698;SDS011;6921;53.642;9.956;2022-07-04T01:05:42;12.63;;;8.60;;
13698;SDS011;6921;53.642;9.956;2022-07-04T01:07:45;9.93;;;8.13;;
13698;SDS011;6921;53.642;9.956;2022-07-04T01:09:50;14.13;;;8.68;;
13698;SDS011;6921;53.642;9.956;2022-07-04T01:11:53;12.13;;;9.27;;
13698;SDS011;6921;53.642;9.956;2022-07-04T01:13:56;13.48;;;9.52;;
13698;SDS011;6921;53.642;9.956;2022-07-04T01:15:59;13.73;;;9.23;;
13698;SDS011;6921;53.642;9.956;2022-07-04T01:18:03;13.88;;;9.20;;
13698;SDS011;6921;53.642;9.956;2022-07-04T01:20:11;15.00;;;9.75;;
13698;SDS011;6921;53.642;9.956;2022-07-04T01:22:14;11.75;;;8.80;;
13698;SDS011;6921;53.642;9.956;2022-07-04T01:24:18;14.65;;;9.57;;
13698;SDS011;6921;53.642;9.956;2022-07-04T01:26:21;13.90;;;10.05;;
13698;SDS011;6921;53.642;9.956;2022-07-04T01:28:25;20.42;;;10.90;;
13698;SDS011;6921;53.642;9.956;2022-07-04T01:30:28;14.52;;;10.50;;
13698;SDS011;6921;53.642;9.956;2022-07-04T01:32:32;15.15;;;10.90;;
13698;SDS011;6921;53.642;9.956;2022-07-04T01:34:35;14.45;;;11.02;;
13698;SDS011;6921;53.642;9.956;2022-07-04T01:36:45;13.80;;;11.43;;
13698;SDS011;6921;53.642;9.956;2022-07-04T01:38:48;15.25;;;11.65;;
13698;SDS011;6921;53.642;9.956;2022-07-04T01:40:51;14.98;;;10.50;;
13698;SDS011;6921;53.642;9.956;2022-07-04T01:42:55;15.38;;;11.48;;
13698;SDS011;6921;53.642;9.956;2022-07-04T01:44:59;17.30;;;12.10;;
13698;SDS011;6921;53.642;9.956;2022-07-04T01:47:03;14.93;;;11.45;;
13698;SDS011;6921;53.642;9.956;2022-07-04T01:49:06;15.65;;;12.65;;
13698;SDS011;6921;53.642;9.956;2022-07-04T01:51:10;20.63;;;12.88;;
13698;SDS011;6921;53.642;9.956;2022-07-04T01:53:14;19.77;;;12.25;;
13698;SDS011;6921;53.642;9.956;2022-07-04T01:55:18;20.02;;;12.95;;
13698;SDS011;6921;53.642;9.956;2022-07-04T01:57:21;19.33;;;13.68;;
13698;SDS011;6921;53.642;9.956;2022-07-04T01:59:24;17.50;;;14.55;;
13698;SDS011;6921;53.642;9.956;2022-07-04T02:01:42;18.77;;;13.98;;
13698;SDS011;6921;53.642;9.956;2022-07-04T02:03:45;20.40;;;14.30;;
13698;SDS011;6921;53.642;9.956;2022-07-04T02:05:48;15.93;;;13.65;;
13698;SDS011;6921;53.642;9.956;2022-07-04T02:07:51;20.73;;;15.18;;
13698;SDS011;6921;53.642;9.956;2022-07-04T02:09:56;18.95;;;14.35;;
13698;SDS011;6921;53.642;9.956;2022-07-04T02:11:59;17.48;;;13.77;;
13698;SDS011;6921;53.642;9.956;2022-07-04T02:14:21;19.77;;;14.63;;
13698;SDS011;6921;53.642;9.956;2022-07-04T02:16:24;18.27;;;14.15;;
13698;SDS011;6921;53.642;9.956;2022-07-04T02:18:27;20.73;;;14.40;;
13698;SDS011;6921;53.642;9.956;2022-07-04T02:20:30;20.90;;;16.00;;
13698;SDS011;6921;53.642;9.956;2022-07-04T02:22:34;22.30;;;15.20;;
13698;SDS011;6921;53.642;9.956;2022-07-04T02:24:37;24.10;;;15.75;;
13698;SDS011;6921;53.642;9.956;2022-07-04T02:26:42;22.38;;;16.85;;
13698;SDS011;6921;53.642;9.956;2022-07-04T02:28:45;22.58;;;16.02;;
13698;SDS011;6921;53.642;9.956;2022-07-04T02:30:48;24.98;;;16.55;;
13698;SDS011;6921;53.642;9.956;2022-07-04T02:32:52;25.65;;;18.15;;
13698;SDS011;6921;53.642;9.956;2022-07-04T02:34:55;21.10;;;16.73;;
13698;SDS011;6921;53.642;9.956;2022-07-04T02:36:58;23.90;;;17.10;;
13698;SDS011;6921;53.642;9.956;2022-07-04T02:39:02;22.40;;;17.23;;
13698;SDS011;6921;53.642;9.956;2022-07-04T02:41:05;23.23;;;16.50;;
13698;SDS011;6921;53.642;9.956;2022-07-04T02:43:10;23.17;;;16.30;;
13698;SDS011;6921;53.642;9.956;2022-07-04T02:45:13;24.50;;;16.95;;
13698;SDS011;6921;53.642;9.956;2022-07-04T02:47:17;18.38;;;15.55;;
13698;SDS011;6921;53.642;9.956;2022-07-04T02:49:20;23.35;;;16.20;;
13698;SDS011;6921;53.642;9.956;2022-07-04T02:51:23;24.40;;;16.05;;
13698;SDS011;6921;53.642;9.956;2022-07-04T02:53:26;20.10;;;15.30;;
13698;SDS011;6921;53.642;9.956;2022-07-04T02:55:30;22.00;;;16.27;;
13698;SDS011;6921;53.642;9.956;2022-07-04T02:57:33;20.92;;;15.25;;
13698;SDS011;6921;53.642;9.956;2022-07-04T02:59:40;20.48;;;15.45;;
13698;SDS011;6921;53.642;9.956;2022-07-04T03:01:43;20.25;;;14.43;;
13698;SDS011;6921;53.642;9.956;2022-07-04T03:03:46;17.58;;;14.95;;
13698;SDS011;6921;53.642;9.956;2022-07-04T03:05:50;19.52;;;14.60;;
13698;SDS011;6921;53.642;9.956;2022-07-04T03:07:53;20.30;;;14.60;;
13698;SDS011;6921;53.642;9.956;2022-07-04T03:09:57;17.73;;;13.70;;
13698;SDS011;6921;53.642;9.956;2022-07-04T03:12:00;19.42;;;15.50;;
13698;SDS011;6921;53.642;9.956;2022-07-04T03:14:03;20.45;;;15.30;;
13698;SDS011;6921;53.642;9.956;2022-07-04T03:16:08;18.17;;;14.05;;
13698;SDS011;6921;53.642;9.956;2022-07-04T03:18:11;18.77;;;14.57;;
13698;SDS011;6921;53.642;9.956;2022-07-04T03:20:14;18.13;;;13.85;;
13698;SDS011;6921;53.642;9.956;2022-07-04T03:22:18;18.02;;;13.75;;
13698;SDS011;6921;53.642;9.956;2022-07-04T03:24:21;17.08;;;13.88;;
13698;SDS011;6921;53.642;9.956;2022-07-04T03:26:25;16.10;;;13.95;;
13698;SDS011;6921;53.642;9.956;2022-07-04T03:28:28;17.63;;;13.95;;
13698;SDS011;6921;53.642;9.956;2022-07-04T03:30:31;17.02;;;12.93;;
13698;SDS011;6921;53.642;9.956;2022-07-04T03:32:36;18.13;;;14.98;;
13698;SDS011;6921;53.642;9.956;2022-07-04T03:34:40;18.63;;;16.17;;
13698;SDS011;6921;53.642;9.956;2022-07-04T03:36:43;18.55;;;14.02;;
13698;SDS011;6921;53.642;9.956;2022-07-04T03:38:46;22.33;;;16.48;;
13698;SDS011;6921;53.642;9.956;2022-07-04T03:40:50;22.45;;;16.23;;
13698;SDS011;6921;53.642;9.956;2022-07-04T03:42:53;19.83;;;16.75;;
13698;SDS011;6921;53.642;9.956;2022-07-04T03:44:56;20.25;;;15.73;;
13698;SDS011;6921;53.642;9.956;2022-07-04T03:47:00;25.05;;;16.67;;
13698;SDS011;6921;53.642;9.956;2022-07-04T03:49:05;21.48;;;16.08;;
13698;SDS011;6921;53.642;9.956;2022-07-04T03:51:08;20.60;;;16.70;;
13698;SDS011;6921;53.642;9.956;2022-07-04T03:53:12;21.45;;;16.55;;
13698;SDS011;6921;53.642;9.956;2022-07-04T03:55:16;22.98;;;16.20;;
13698;SDS011;6921;53.642;9.956;2022-07-04T03:57:19;20.67;;;15.93;;
13698;SDS011;6921;53.642;9.956;2022-07-04T03:59:22;25.88;;;17.08;;
13698;SDS011;6921;53.642;9.956;2022-07-04T04:01:26;20.15;;;15.77;;
13698;SDS011;6921;53.642;9.956;2022-07-04T04:03:30;20.33;;;15.80;;
13698;SDS011;6921;53.642;9.956;2022-07-04T04:05:52;22.50;;;15.70;;
13698;SDS011;6921;53.642;9.956;2022-07-04T04:07:56;24.20;;;16.92;;
13698;SDS011;6921;53.642;9.956;2022-07-04T04:10:00;25.52;;;16.13;;
13698;SDS011;6921;53.642;9.956;2022-07-04T04:12:05;21.65;;;16.33;;
13698;SDS011;6921;53.642;9.956;2022-07-04T04:14:08;23.65;;;15.98;;
13698;SDS011;6921;53.642;9.956;2022-07-04T04:16:12;22.85;;;16.42;;
13698;SDS011;6921;53.642;9.956;2022-07-04T04:18:16;23.10;;;15.52;;
13698;SDS011;6921;53.642;9.956;2022-07-04T04:20:19;22.40;;;15.80;;
13698;SDS011;6921;53.642;9.956;2022-07-04T04:22:24;18.17;;;15.35;;
13698;SDS011;6921;53.642;9.956;2022-07-04T04:24:27;20.73;;;15.77;;
13698;SDS011;6921;53.642;9.956;2022-07-04T04:26:31;18.00;;;15.95;;
13698;SDS011;6921;53.642;9.956;2022-07-04T04:28:34;16.98;;;13.80;;
13698;SDS011;6921;53.642;9.956;2022-07-04T04:30:37;18.33;;;14.68;;
13698;SDS011;6921;53.642;9.956;2022-07-04T04:32:40;16.80;;;14.35;;
13698;SDS011;6921;53.642;9.956;2022-07-04T04:34:45;18.65;;;13.85;;
13698;SDS011;6921;53.642;9.956;2022-07-04T04:36:48;15.55;;;13.40;;
13698;SDS011;6921;53.642;9.956;2022-07-04T04:38:53;17.15;;;14.02;;
13698;SDS011;6921;53.642;9.956;2022-07-04T04:40:56;14.65;;;12.30;;
13698;SDS011;6921;53.642;9.956;2022-07-04T04:42:59;13.82;;;10.70;;
13698;SDS011;6921;53.642;9.956;2022-07-04T04:45:03;14.20;;;11.23;;
13698;SDS011;6921;53.642;9.956;2022-07-04T04:47:06;15.52;;;11.95;;
13698;SDS011;6921;53.642;9.956;2022-07-04T04:49:10;15.88;;;11.98;;
13698;SDS011;6921;53.642;9.956;2022-07-04T04:51:13;13.68;;;10.75;;
13698;SDS011;6921;53.642;9.956;2022-07-04T04:53:17;12.55;;;10.13;;
13698;SDS011;6921;53.642;9.956;2022-07-04T04:55:25;14.02;;;10.07;;
13698;SDS011;6921;53.642;9.956;2022-07-04T04:57:31;13.13;;;9.50;;
13698;SDS011;6921;53.642;9.956;2022-07-04T04:59:35;11.02;;;9.13;;
13698;SDS011;6921;53.642;9.956;2022-07-04T05:01:38;10.38;;;8.95;;
13698;SDS011;6921;53.642;9.956;2022-07-04T05:03:43;9.02;;;7.65;;
13698;SDS011;6921;53.642;9.956;2022-07-04T05:05:46;10.75;;;7.13;;
13698;SDS011;6921;53.642;9.956;2022-07-04T05:07:51;9.05;;;7.05;;
13698;SDS011;6921;53.642;9.956;2022-07-04T05:09:54;10.18;;;7.03;;
13698;SDS011;6921;53.642;9.956;2022-07-04T05:12:02;8.07;;;6.88;;
13698;SDS011;6921;53.642;9.956;2022-07-04T05:14:05;6.97;;;6.28;;
13698;SDS011;6921;53.642;9.956;2022-07-04T05:16:08;9.30;;;5.55;;
13698;SDS011;6921;53.642;9.956;2022-07-04T05:18:12;9.20;;;5.38;;
13698;SDS011;6921;53.642;9.956;2022-07-04T05:20:15;6.60;;;5.35;;
13698;SDS011;6921;53.642;9.956;2022-07-04T05:22:19;8.27;;;4.97;;
13698;SDS011;6921;53.642;9.956;2022-07-04T05:24:22;5.90;;;4.95;;
13698;SDS011;6921;53.642;9.956;2022-07-04T05:26:27;5.65;;;3.83;;
13698;SDS011;6921;53.642;9.956;2022-07-04T05:28:33;8.05;;;4.20;;
13698;SDS011;6921;53.642;9.956;2022-07-04T05:30:36;4.57;;;3.80;;
13698;SDS011;6921;53.642;9.956;2022-07-04T05:32:40;5.60;;;3.50;;
13698;SDS011;6921;53.642;9.956;2022-07-04T05:34:43;7.10;;;3.90;;
13698;SDS011;6921;53.642;9.956;2022-07-04T05:36:47;6.07;;;3.70;;
13698;SDS011;6921;53.642;9.956;2022-07-04T05:38:50;3.55;;;3.20;;
13698;SDS011;6921;53.642;9.956;2022-07-04T05:40:54;4.80;;;3.13;;
13698;SDS011;6921;53.642;9.956;2022-07-04T05:42:57;5.57;;;3.30;;
13698;SDS011;6921;53.642;9.956;2022-07-04T05:45:02;5.85;;;3.30;;
13698;SDS011;6921;53.642;9.956;2022-07-04T05:47:06;5.07;;;3.10;;
13698;SDS011;6921;53.642;9.956;2022-07-04T05:49:09;4.20;;;2.90;;
13698;SDS011;6921;53.642;9.956;2022-07-04T05:51:14;4.05;;;2.83;;
13698;SDS011;6921;53.642;9.956;2022-07-04T05:53:18;4.07;;;2.08;;
13698;SDS011;6921;53.642;9.956;2022-07-04T05:55:21;4.05;;;2.33;;
13698;SDS011;6921;53.642;9.956;2022-07-04T05:57:24;3.53;;;2.40;;
13698;SDS011;6921;53.642;9.956;2022-07-04T05:59:28;5.35;;;2.53;;
13698;SDS011;6921;53.642;9.956;2022-07-04T06:01:33;5.18;;;2.75;;
13698;SDS011;6921;53.642;9.956;2022-07-04T06:03:36;9.15;;;2.30;;
13698;SDS011;6921;53.642;9.956;2022-07-04T06:05:39;5.15;;;2.40;;
13698;SDS011;6921;53.642;9.956;2022-07-04T06:07:43;2.33;;;1.88;;
13698;SDS011;6921;53.642;9.956;2022-07-04T06:09:46;4.88;;;2.35;;
13698;SDS011;6921;53.642;9.956;2022-07-04T06:11:50;2.67;;;2.25;;
13698;SDS011;6921;53.642;9.956;2022-07-04T06:13:53;4.78;;;2.38;;
13698;SDS011;6921;53.642;9.956;2022-07-04T06:15:56;7.20;;;2.20;;
13698;SDS011;6921;53.642;9.956;2022-07-04T06:18:01;3.20;;;1.90;;
13698;SDS011;6921;53.642;9.956;2022-07-04T06:20:05;4.82;;;2.10;;
13698;SDS011;6921;53.642;9.956;2022-07-04T06:22:08;7.70;;;2.40;;
13698;SDS011;6921;53.642;9.956;2022-07-04T06:24:12;3.00;;;2.10;;
13698;SDS011;6921;53.642;9.956;2022-07-04T06:26:15;3.03;;;2.10;;
13698;SDS011;6921;53.642;9.956;2022-07-04T06:28:18;2.42;;;1.88;;
13698;SDS011;6921;53.642;9.956;2022-07-04T06:30:41;5.30;;;1.88;;
13698;SDS011;6921;53.642;9.956;2022-07-04T06:32:46;3.83;;;1.95;;
13698;SDS011;6921;53.642;9.956;2022-07-04T06:34:51;4.00;;;1.88;;
13698;SDS011;6921;53.642;9.956;2022-07-04T06:37:12;6.05;;;1.80;;
13698;SDS011;6921;53.642;9.956;2022-07-04T06:39:15;7.00;;;1.88;;
13698;SDS011;6921;53.642;9.956;2022-07-04T06:41:19;3.20;;;1.88;;
13698;SDS011;6921;53.642;9.956;2022-07-04T06:43:22;4.45;;;2.30;;
13698;SDS011;6921;53.642;9.956;2022-07-04T06:45:25;2.65;;;1.88;;
13698;SDS011;6921;53.642;9.956;2022-07-04T06:47:29;4.35;;;2.35;;
13698;SDS011;6921;53.642;9.956;2022-07-04T06:49:33;4.20;;;2.25;;
13698;SDS011;6921;53.642;9.956;2022-07-04T06:51:37;3.28;;;2.08;;
13698;SDS011;6921;53.642;9.956;2022-07-04T06:53:41;4.25;;;2.17;;
13698;SDS011;6921;53.642;9.956;2022-07-04T06:55:46;3.13;;;2.03;;
13698;SDS011;6921;53.642;9.956;2022-07-04T06:57:49;2.72;;;2.20;;
13698;SDS011;6921;53.642;9.956;2022-07-04T06:59:52;4.18;;;2.20;;
13698;SDS011;6921;53.642;9.956;2022-07-04T07:01:56;5.57;;;2.03;;
13698;SDS011;6921;53.642;9.956;2022-07-04T07:04:01;3.90;;;2.00;;
13698;SDS011;6921;53.642;9.956;2022-07-04T07:06:04;3.38;;;1.70;;
13698;SDS011;6921;53.642;9.956;2022-07-04T07:08:09;3.83;;;2.03;;
13698;SDS011;6921;53.642;9.956;2022-07-04T07:10:12;3.88;;;1.90;;
13698;SDS011;6921;53.642;9.956;2022-07-04T07:12:15;3.47;;;1.80;;
13698;SDS011;6921;53.642;9.956;2022-07-04T07:14:19;5.32;;;1.73;;
13698;SDS011;6921;53.642;9.956;2022-07-04T07:16:22;4.82;;;1.85;;
13698;SDS011;6921;53.642;9.956;2022-07-04T07:18:26;2.97;;;1.35;;
13698;SDS011;6921;53.642;9.956;2022-07-04T07:20:30;3.53;;;1.92;;
13698;SDS011;6921;53.642;9.956;2022-07-04T07:22:33;3.53;;;1.58;;
13698;SDS011;6921;53.642;9.956;2022-07-04T07:24:42;5.00;;;1.60;;
13698;SDS011;6921;53.642;9.956;2022-07-04T07:26:46;4.90;;;1.48;;
13698;SDS011;6921;53.642;9.956;2022-07-04T07:28:49;4.72;;;1.33;;
13698;SDS011;6921;53.642;9.956;2022-07-04T07:30:52;4.68;;;1.80;;
13698;SDS011;6921;53.642;9.956;2022-07-04T07:32:55;3.20;;;1.45;;
13698;SDS011;6921;53.642;9.956;2022-07-04T07:34:59;4.78;;;1.48;;
13698;SDS011;6921;53.642;9.956;2022-07-04T07:37:02;3.17;;;1.50;;
13698;SDS011;6921;53.642;9.956;2022-07-04T07:39:05;3.40;;;1.50;;
13698;SDS011;6921;53.642;9.956;2022-07-04T07:41:10;3.25;;;1.50;;
13698;SDS011;6921;53.642;9.956;2022-07-04T07:43:14;5.40;;;1.63;;
13698;SDS011;6921;53.642;9.956;2022-07-04T07:45:17;3.75;;;1.40;;
13698;SDS011;6921;53.642;9.956;2022-07-04T07:47:20;2.63;;;1.23;;
13698;SDS011;6921;53.642;9.956;2022-07-04T07:49:23;1.77;;;1.40;;
13698;SDS011;6921;53.642;9.956;2022-07-04T07:51:27;3.55;;;1.40;;
13698;SDS011;6921;53.642;9.956;2022-07-04T07:53:30;1.70;;;1.15;;
13698;SDS011;6921;53.642;9.956;2022-07-04T07:55:33;2.08;;;1.27;;
13698;SDS011;6921;53.642;9.956;2022-07-04T07:57:38;3.70;;;1.15;;
13698;SDS011;6921;53.642;9.956;2022-07-04T07:59:46;3.10;;;1.23;;
13698;SDS011;6921;53.642;9.956;2022-07-04T08:01:50;1.55;;;1.20;;
13698;SDS011;6921;53.642;9.956;2022-07-04T08:03:53;2.50;;;1.20;;
13698;SDS011;6921;53.642;9.956;2022-07-04T08:06:16;2.15;;;1.15;;
13698;SDS011;6921;53.642;9.956;2022-07-04T08:08:20;2.67;;;1.50;;
13698;SDS011;6921;53.642;9.956;2022-07-04T08:10:25;5.18;;;1.10;;
13698;SDS011;6921;53.642;9.956;2022-07-04T08:12:28;4.03;;;1.23;;
13698;SDS011;6921;53.642;9.956;2022-07-04T08:14:33;3.10;;;1.00;;
13698;SDS011;6921;53.642;9.956;2022-07-04T08:16:36;4.75;;;1.30;;
13698;SDS011;6921;53.642;9.956;2022-07-04T08:18:55;1.83;;;0.90;;
13698;SDS011;6921;53.642;9.956;2022-07-04T08:20:59;1.30;;;1.10;;
13698;SDS011;6921;53.642;9.956;2022-07-04T08:23:05;2.85;;;1.90;;
13698;SDS011;6921;53.642;9.956;2022-07-04T08:25:08;1.73;;;1.35;;
13698;SDS011;6921;53.642;9.956;2022-07-04T08:27:12;1.50;;;1.40;;
13698;SDS011;6921;53.642;9.956;2022-07-04T08:29:18;3.75;;;1.35;;
13698;SDS011;6921;53.642;9.956;2022-07-04T08:31:23;2.88;;;1.45;;
13698;SDS011;6921;53.642;9.956;2022-07-04T08:33:46;3.97;;;1.30;;
13698;SDS011;6921;53.642;9.956;2022-07-04T08:35:50;3.33;;;1.15;;
13698;SDS011;6921;53.642;9.956;2022-07-04T08:37:54;2.30;;;1.40;;
13698;SDS011;6921;53.642;9.956;2022-07-04T08:39:58;5.07;;;1.30;;
13698;SDS011;6921;53.642;9.956;2022-07-04T08:42:02;3.42;;;1.30;;
13698;SDS011;6921;53.642;9.956;2022-07-04T08:44:06;2.53;;;1.00;;
13698;SDS011;6921;53.642;9.956;2022-07-04T08:46:11;1.67;;;1.05;;
13698;SDS011;6921;53.642;9.956;2022-07-04T08:48:24;5.10;;;1.23;;
13698;SDS011;6921;53.642;9.956;2022-07-04T08:50:29;1.85;;;1.00;;
13698;SDS011;6921;53.642;9.956;2022-07-04T08:52:34;2.22;;;0.90;;
13698;SDS011;6921;53.642;9.956;2022-07-04T08:54:38;1.73;;;1.10;;
13698;SDS011;6921;53.642;9.956;2022-07-04T08:56:59;1.98;;;1.08;;
13698;SDS011;6921;53.642;9.956;2022-07-04T08:59:20;1.55;;;1.10;;
13698;SDS011;6921;53.642;9.956;2022-07-04T09:01:24;2.55;;;1.20;;
13698;SDS011;6921;53.642;9.956;2022-07-04T09:03:31;2.00;;;0.98;;
13698;SDS011;6921;53.642;9.956;2022-07-04T09:05:35;2.72;;;1.00;;
13698;SDS011;6921;53.642;9.956;2022-07-04T09:07:38;3.45;;;1.17;;
13698;SDS011;6921;53.642;9.956;2022-07-04T09:09:42;2.40;;;1.08;;
13698;SDS011;6921;53.642;9.956;2022-07-04T09:11:51;3.42;;;1.17;;
13698;SDS011;6921;53.642;9.956;2022-07-04T09:13:56;1.33;;;1.17;;
13698;SDS011;6921;53.642;9.956;2022-07-04T09:15:59;1.17;;;0.93;;
13698;SDS011;6921;53.642;9.956;2022-07-04T09:18:03;2.08;;;1.02;;
13698;SDS011;6921;53.642;9.956;2022-07-04T09:20:11;1.63;;;1.00;;
13698;SDS011;6921;53.642;9.956;2022-07-04T09:22:15;1.33;;;0.90;;
13698;SDS011;6921;53.642;9.956;2022-07-04T09:24:21;2.90;;;0.95;;
13698;SDS011;6921;53.642;9.956;2022-07-04T09:26:44;1.25;;;1.10;;
13698;SDS011;6921;53.642;9.956;2022-07-04T09:28:50;3.05;;;1.23;;
13698;SDS011;6921;53.642;9.956;2022-07-04T09:30:54;2.38;;;1.15;;
13698;SDS011;6921;53.642;9.956;2022-07-04T09:32:59;2.78;;;1.30;;
13698;SDS011;6921;53.642;9.956;2022-07-04T09:35:04;2.03;;;1.15;;
13698;SDS011;6921;53.642;9.956;2022-07-04T09:37:09;0.85;;;0.85;;
13698;SDS011;6921;53.642;9.956;2022-07-04T09:39:13;3.22;;;1.05;;
13698;SDS011;6921;53.642;9.956;2022-07-04T09:41:16;1.67;;;1.05;;
13698;SDS011;6921;53.642;9.956;2022-07-04T09:43:31;4.40;;;1.20;;
13698;SDS011;6921;53.642;9.956;2022-07-04T09:45:34;1.25;;;0.90;;
13698;SDS011;6921;53.642;9.956;2022-07-04T09:47:38;1.10;;;1.00;;
13698;SDS011;6921;53.642;9.956;2022-07-04T09:49:44;3.25;;;1.00;;
13698;SDS011;6921;53.642;9.956;2022-07-04T09:52:00;2.13;;;0.90;;
13698;SDS011;6921;53.642;9.956;2022-07-04T09:54:18;2.55;;;1.13;;
13698;SDS011;6921;53.642;9.956;2022-07-04T09:56:25;1.48;;;0.90;;
13698;SDS011;6921;53.642;9.956;2022-07-04T09:58:41;1.25;;;0.90;;
13698;SDS011;6921;53.642;9.956;2022-07-04T10:00:58;2.40;;;1.00;;
13698;SDS011;6921;53.642;9.956;2022-07-04T10:03:15;0.88;;;0.80;;
13698;SDS011;6921;53.642;9.956;2022-07-04T10:05:20;1.10;;;1.00;;
13698;SDS011;6921;53.642;9.956;2022-07-04T10:07:30;0.90;;;0.80;;
13698;SDS011;6921;53.642;9.956;2022-07-04T10:09:35;1.70;;;0.98;;
13698;SDS011;6921;53.642;9.956;2022-07-04T10:11:39;2.22;;;1.10;;
13698;SDS011;6921;53.642;9.956;2022-07-04T10:13:42;1.77;;;1.10;;
13698;SDS011;6921;53.642;9.956;2022-07-04T10:15:46;1.88;;;1.00;;
13698;SDS011;6921;53.642;9.956;2022-07-04T10:17:49;2.60;;;0.90;;
13698;SDS011;6921;53.642;9.956;2022-07-04T10:19:52;1.92;;;0.90;;
13698;SDS011;6921;53.642;9.956;2022-07-04T10:21:56;2.28;;;0.80;;
13698;SDS011;6921;53.642;9.956;2022-07-04T10:23:59;0.85;;;0.70;;
13698;SDS011;6921;53.642;9.956;2022-07-04T10:26:05;1.60;;;1.00;;
13698;SDS011;6921;53.642;9.956;2022-07-04T10:28:09;2.72;;;0.90;;
13698;SDS011;6921;53.642;9.956;2022-07-04T10:30:13;2.17;;;1.30;;
13698;SDS011;6921;53.642;9.956;2022-07-04T10:32:17;1.75;;;1.02;;
13698;SDS011;6921;53.642;9.956;2022-07-04T10:34:21;1.98;;;0.95;;
13698;SDS011;6921;53.642;9.956;2022-07-04T10:36:26;2.83;;;0.90;;
13698;SDS011;6921;53.642;9.956;2022-07-04T10:38:31;1.90;;;0.85;;
13698;SDS011;6921;53.642;9.956;2022-07-04T10:40:39;1.60;;;0.82;;
13698;SDS011;6921;53.642;9.956;2022-07-04T10:42:45;3.40;;;0.95;;
13698;SDS011;6921;53.642;9.956;2022-07-04T10:44:48;3.40;;;0.80;;
13698;SDS011;6921;53.642;9.956;2022-07-04T10:46:52;3.25;;;0.95;;
13698;SDS011;6921;53.642;9.956;2022-07-04T10:48:59;2.10;;;0.93;;
13698;SDS011;6921;53.642;9.956;2022-07-04T10:51:03;1.55;;;0.80;;
13698;SDS011;6921;53.642;9.956;2022-07-04T10:53:10;1.42;;;0.70;;
13698;SDS011;6921;53.642;9.956;2022-07-04T10:55:17;1.58;;;1.00;;
13698;SDS011;6921;53.642;9.956;2022-07-04T10:57:21;4.43;;;0.98;;
13698;SDS011;6921;53.642;9.956;2022-07-04T10:59:27;1.00;;;0.77;;
13698;SDS011;6921;53.642;9.956;2022-07-04T11:01:30;2.03;;;1.00;;
13698;SDS011;6921;53.642;9.956;2022-07-04T11:03:38;2.22;;;1.00;;
13698;SDS011;6921;53.642;9.956;2022-07-04T11:05:48;1.33;;;1.00;;
13698;SDS011;6921;53.642;9.956;2022-07-04T11:07:59;1.92;;;1.10;;
13698;SDS011;6921;53.642;9.956;2022-07-04T11:12:27;1.33;;;0.80;;
13698;SDS011;6921;53.642;9.956;2022-07-04T11:14:32;2.92;;;0.70;;
13698;SDS011;6921;53.642;9.956;2022-07-04T11:16:51;1.50;;;0.73;;
13698;SDS011;6921;53.642;9.956;2022-07-04T11:18:54;2.35;;;1.00;;
13698;SDS011;6921;53.642;9.956;2022-07-04T11:20:57;2.60;;;0.90;;
13698;SDS011;6921;53.642;9.956;2022-07-04T11:23:03;1.38;;;0.90;;
13698;SDS011;6921;53.642;9.956;2022-07-04T11:25:10;2.47;;;1.00;;
13698;SDS011;6921;53.642;9.956;2022-07-04T11:27:17;0.80;;;0.80;;
13698;SDS011;6921;53.642;9.956;2022-07-04T11:29:23;2.35;;;0.70;;
13698;SDS011;6921;53.642;9.956;2022-07-04T11:31:38;2.00;;;0.80;;
13698;SDS011;6921;53.642;9.956;2022-07-04T11:33:44;1.15;;;0.90;;
13698;SDS011;6921;53.642;9.956;2022-07-04T11:36:00;2.75;;;0.90;;
13698;SDS011;6921;53.642;9.956;2022-07-04T11:38:04;0.80;;;0.77;;
13698;SDS011;6921;53.642;9.956;2022-07-04T11:40:08;3.45;;;0.98;;
13698;SDS011;6921;53.642;9.956;2022-07-04T11:42:25;2.05;;;0.77;;
13698;SDS011;6921;53.642;9.956;2022-07-04T11:44:46;2.50;;;1.00;;
13698;SDS011;6921;53.642;9.956;2022-07-04T11:47:11;2.33;;;0.95;;
13698;SDS011;6921;53.642;9.956;2022-07-04T11:49:16;1.50;;;0.90;;
13698;SDS011;6921;53.642;9.956;2022-07-04T11:51:19;3.13;;;1.02;;
13698;SDS011;6921;53.642;9.956;2022-07-04T11:53:23;1.83;;;0.90;;
13698;SDS011;6921;53.642;9.956;2022-07-04T11:55:26;1.35;;;0.90;;
13698;SDS011;6921;53.642;9.956;2022-07-04T11:57:32;1.85;;;0.98;;
13698;SDS011;6921;53.642;9.956;2022-07-04T11:59:36;1.98;;;1.05;;
13698;SDS011;6921;53.642;9.956;2022-07-04T12:01:40;2.55;;;1.00;;
13698;SDS011;6921;53.642;9.956;2022-07-04T12:03:45;1.23;;;1.13;;
13698;SDS011;6921;53.642;9.956;2022-07-04T12:05:59;1.40;;;0.88;;
13698;SDS011;6921;53.642;9.956;2022-07-04T12:08:02;1.08;;;0.93;;
13698;SDS011;6921;53.642;9.956;2022-07-04T12:10:25;2.33;;;1.10;;
13698;SDS011;6921;53.642;9.956;2022-07-04T12:12:29;5.80;;;1.10;;
13698;SDS011;6921;53.642;9.956;2022-07-04T12:14:32;3.10;;;0.88;;
13698;SDS011;6921;53.642;9.956;2022-07-04T12:16:35;3.67;;;1.02;;
13698;SDS011;6921;53.642;9.956;2022-07-04T12:18:39;1.50;;;1.13;;
13698;SDS011;6921;53.642;9.956;2022-07-04T12:20:43;1.45;;;0.80;;
13698;SDS011;6921;53.642;9.956;2022-07-04T12:22:49;1.73;;;0.90;;
13698;SDS011;6921;53.642;9.956;2022-07-04T12:24:54;4.93;;;1.13;;
13698;SDS011;6921;53.642;9.956;2022-07-04T12:26:57;1.63;;;0.98;;
13698;SDS011;6921;53.642;9.956;2022-07-04T12:29:01;2.00;;;0.90;;
13698;SDS011;6921;53.642;9.956;2022-07-04T12:31:06;2.60;;;0.93;;
13698;SDS011;6921;53.642;9.956;2022-07-04T12:33:10;1.58;;;1.00;;
13698;SDS011;6921;53.642;9.956;2022-07-04T12:37:36;2.53;;;1.13;;
13698;SDS011;6921;53.642;9.956;2022-07-04T12:39:40;2.55;;;0.90;;
13698;SDS011;6921;53.642;9.956;2022-07-04T12:41:45;4.63;;;1.20;;
13698;SDS011;6921;53.642;9.956;2022-07-04T12:43:50;3.75;;;1.10;;